sensor_id;sensor_type;location;lat;lon;timestamp;temperature;humidity
3816;DHT22;1923;48.154;11.536;2023-10-19T00:02:49;10.40;99.90
3816;DHT22;1923;48.154;11.536;2023-10-19T00:05:19;10.30;99.90
3816;DHT22;1923;48.154;11.536;2023-10-19T00:07:47;10.50;99.90
3816;DHT22;1923;48.154;11.536;2023-10-19T00:10:16;10.50;99.90
3816;DHT22;1923;48.154;11.536;2023-10-19T00:12:44;10.40;99.90
3816;DHT22;1923;48.154;11.536;2023-10-19T00:15:19;10.40;99.90
3816;DHT22;1923;48.154;11.536;2023-10-19T00:17:52;10.50;99.90
3816;DHT22;1923;48.154;11.536;2023-10-19T00:20:21;10.40;99.90
3816;DHT22;1923;48.154;11.536;2023-10-19T00:23:02;10.30;99.90
3816;DHT22;1923;48.154;11.536;2023-10-19T00:25:32;10.20;99.90
3816;DHT22;1923;48.154;11.536;2023-10-19T00:28:01;10.20;99.90
3816;DHT22;1923;48.154;11.536;2023-10-19T00:30:31;10.20;99.90
3816;DHT22;1923;48.154;11.536;2023-10-19T00:33:04;10.30;99.90
3816;DHT22;1923;48.154;11.536;2023-10-19T00:35:42;10.20;99.90
3816;DHT22;1923;48.154;11.536;2023-10-19T00:38:13;10.10;99.90
3816;DHT22;1923;48.154;11.536;2023-10-19T00:41:07;10.20;99.90
3816;DHT22;1923;48.154;11.536;2023-10-19T00:43:39;10.00;99.90
3816;DHT22;1923;48.154;11.536;2023-10-19T00:46:11;9.90;99.90
3816;DHT22;1923;48.154;11.536;2023-10-19T00:48:54;9.90;99.90
3816;DHT22;1923;48.154;11.536;2023-10-19T00:51:27;10.00;99.90
3816;DHT22;1923;48.154;11.536;2023-10-19T00:54:10;10.00;99.90
3816;DHT22;1923;48.154;11.536;2023-10-19T00:56:43;9.90;99.90
3816;DHT22;1923;48.154;11.536;2023-10-19T00:59:18;9.90;99.90
3816;DHT22;1923;48.154;11.536;2023-10-19T01:01:51;9.90;99.90
3816;DHT22;1923;48.154;11.536;2023-10-19T01:04:23;9.90;99.90
3816;DHT22;1923;48.154;11.536;2023-10-19T01:06:59;9.90;99.90
3816;DHT22;1923;48.154;11.536;2023-10-19T01:09:32;10.10;99.90
3816;DHT22;1923;48.154;11.536;2023-10-19T01:12:03;10.20;99.90
3816;DHT22;1923;48.154;11.536;2023-10-19T01:14:44;10.20;99.90
3816;DHT22;1923;48.154;11.536;2023-10-19T01:17:13;10.30;99.90
3816;DHT22;1923;48.154;11.536;2023-10-19T01:19:42;10.40;99.90
3816;DHT22;1923;48.154;11.536;2023-10-19T01:22:10;10.30;99.90
3816;DHT22;1923;48.154;11.536;2023-10-19T01:24:45;10.20;99.90
3816;DHT22;1923;48.154;11.536;2023-10-19T01:27:13;10.20;99.90
3816;DHT22;1923;48.154;11.536;2023-10-19T01:29:41;10.30;99.90
3816;DHT22;1923;48.154;11.536;2023-10-19T01:32:10;10.30;99.90
3816;DHT22;1923;48.154;11.536;2023-10-19T01:34:39;10.20;99.90
3816;DHT22;1923;48.154;11.536;2023-10-19T01:37:07;10.20;99.90
3816;DHT22;1923;48.154;11.536;2023-10-19T01:39:34;10.30;99.90
3816;DHT22;1923;48.154;11.536;2023-10-19T01:42:07;10.40;99.90
3816;DHT22;1923;48.154;11.536;2023-10-19T01:44:35;10.10;99.90
3816;DHT22;1923;48.154;11.536;2023-10-19T01:47:03;10.20;99.90
3816;DHT22;1923;48.154;11.536;2023-10-19T01:49:33;10.30;99.90
3816;DHT22;1923;48.154;11.536;2023-10-19T01:52:00;10.20;99.90
3816;DHT22;1923;48.154;11.536;2023-10-19T01:54:28;10.20;99.90
3816;DHT22;1923;48.154;11.536;2023-10-19T01:56:56;10.10;99.90
3816;DHT22;1923;48.154;11.536;2023-10-19T01:59:26;10.20;99.90
3816;DHT22;1923;48.154;11.536;2023-10-19T02:01:54;10.20;99.90
3816;DHT22;1923;48.154;11.536;2023-10-19T02:04:24;10.30;99.90
3816;DHT22;1923;48.154;11.536;2023-10-19T02:06:52;10.40;99.90
3816;DHT22;1923;48.154;11.536;2023-10-19T02:09:21;10.30;99.90
3816;DHT22;1923;48.154;11.536;2023-10-19T02:11:50;10.20;99.90
3816;DHT22;1923;48.154;11.536;2023-10-19T02:14:25;10.20;99.90
3816;DHT22;1923;48.154;11.536;2023-10-19T02:16:54;10.10;99.90
3816;DHT22;1923;48.154;11.536;2023-10-19T02:19:25;10.20;99.90
3816;DHT22;1923;48.154;11.536;2023-10-19T02:21:55;10.10;99.90
3816;DHT22;1923;48.154;11.536;2023-10-19T02:24:23;10.20;99.90
3816;DHT22;1923;48.154;11.536;2023-10-19T02:26:53;10.20;99.90
3816;DHT22;1923;48.154;11.536;2023-10-19T02:29:25;10.30;99.90
3816;DHT22;1923;48.154;11.536;2023-10-19T02:31:54;10.20;99.90
3816;DHT22;1923;48.154;11.536;2023-10-19T02:34:22;10.20;99.90
3816;DHT22;1923;48.154;11.536;2023-10-19T02:36:50;10.20;99.90
3816;DHT22;1923;48.154;11.536;2023-10-19T02:39:17;10.30;99.90
3816;DHT22;1923;48.154;11.536;2023-10-19T02:41:49;10.30;99.90
3816;DHT22;1923;48.154;11.536;2023-10-19T02:44:17;10.20;99.90
3816;DHT22;1923;48.154;11.536;2023-10-19T02:46:52;10.30;99.90
3816;DHT22;1923;48.154;11.536;2023-10-19T02:49:21;10.40;99.90
3816;DHT22;1923;48.154;11.536;2023-10-19T02:51:51;10.30;99.90
3816;DHT22;1923;48.154;11.536;2023-10-19T02:54:20;10.30;99.90
3816;DHT22;1923;48.154;11.536;2023-10-19T02:56:50;10.40;99.90
3816;DHT22;1923;48.154;11.536;2023-10-19T02:59:20;10.40;99.90
3816;DHT22;1923;48.154;11.536;2023-10-19T03:01:53;10.40;99.90
3816;DHT22;1923;48.154;11.536;2023-10-19T03:04:28;10.40;99.90
3816;DHT22;1923;48.154;11.536;2023-10-19T03:06:57;10.30;99.90
3816;DHT22;1923;48.154;11.536;2023-10-19T03:09:25;10.40;99.90
3816;DHT22;1923;48.154;11.536;2023-10-19T03:11:57;10.40;99.90
3816;DHT22;1923;48.154;11.536;2023-10-19T03:14:27;10.40;99.90
3816;DHT22;1923;48.154;11.536;2023-10-19T03:16:56;10.40;99.90
3816;DHT22;1923;48.154;11.536;2023-10-19T03:19:25;10.40;99.90
3816;DHT22;1923;48.154;11.536;2023-10-19T03:21:53;10.50;99.90
3816;DHT22;1923;48.154;11.536;2023-10-19T03:24:23;10.40;99.90
3816;DHT22;1923;48.154;11.536;2023-10-19T03:27:02;10.40;99.90
3816;DHT22;1923;48.154;11.536;2023-10-19T03:29:39;10.40;99.90
3816;DHT22;1923;48.154;11.536;2023-10-19T03:32:08;10.40;99.90
3816;DHT22;1923;48.154;11.536;2023-10-19T03:34:36;10.30;99.90
3816;DHT22;1923;48.154;11.536;2023-10-19T03:37:06;10.40;99.90
3816;DHT22;1923;48.154;11.536;2023-10-19T03:39:39;10.40;99.90
3816;DHT22;1923;48.154;11.536;2023-10-19T03:42:07;10.50;99.90
3816;DHT22;1923;48.154;11.536;2023-10-19T03:44:35;10.60;99.90
3816;DHT22;1923;48.154;11.536;2023-10-19T03:47:12;10.60;99.90
3816;DHT22;1923;48.154;11.536;2023-10-19T03:49:45;10.60;99.90
3816;DHT22;1923;48.154;11.536;2023-10-19T03:52:14;10.70;99.90
3816;DHT22;1923;48.154;11.536;2023-10-19T03:54:48;10.70;99.90
3816;DHT22;1923;48.154;11.536;2023-10-19T03:57:18;10.70;99.90
3816;DHT22;1923;48.154;11.536;2023-10-19T03:59:52;10.80;99.90
3816;DHT22;1923;48.154;11.536;2023-10-19T04:02:25;10.80;99.90
3816;DHT22;1923;48.154;11.536;2023-10-19T04:04:56;10.80;99.90
3816;DHT22;1923;48.154;11.536;2023-10-19T04:07:25;10.80;99.90
3816;DHT22;1923;48.154;11.536;2023-10-19T04:09:54;10.80;99.90
3816;DHT22;1923;48.154;11.536;2023-10-19T04:12:37;10.80;99.90
3816;DHT22;1923;48.154;11.536;2023-10-19T04:15:08;10.80;99.90
3816;DHT22;1923;48.154;11.536;2023-10-19T04:17:41;11.00;99.90
3816;DHT22;1923;48.154;11.536;2023-10-19T04:20:10;10.90;99.90
3816;DHT22;1923;48.154;11.536;2023-10-19T04:22:55;11.00;99.90
3816;DHT22;1923;48.154;11.536;2023-10-19T04:25:25;11.00;99.90
3816;DHT22;1923;48.154;11.536;2023-10-19T04:27:54;11.10;99.90
3816;DHT22;1923;48.154;11.536;2023-10-19T04:30:24;11.10;99.90
3816;DHT22;1923;48.154;11.536;2023-10-19T04:32:54;11.00;99.90
3816;DHT22;1923;48.154;11.536;2023-10-19T04:35:25;11.10;99.90
3816;DHT22;1923;48.154;11.536;2023-10-19T04:37:57;11.10;99.90
3816;DHT22;1923;48.154;11.536;2023-10-19T04:40:26;11.10;99.90
3816;DHT22;1923;48.154;11.536;2023-10-19T04:42:55;11.20;99.90
3816;DHT22;1923;48.154;11.536;2023-10-19T04:45:23;11.30;99.90
3816;DHT22;1923;48.154;11.536;2023-10-19T04:47:51;11.30;99.90
3816;DHT22;1923;48.154;11.536;2023-10-19T04:50:23;11.50;99.90
3816;DHT22;1923;48.154;11.536;2023-10-19T04:52:51;11.50;99.90
3816;DHT22;1923;48.154;11.536;2023-10-19T04:55:19;11.50;99.90
3816;DHT22;1923;48.154;11.536;2023-10-19T04:57:47;11.50;99.90
3816;DHT22;1923;48.154;11.536;2023-10-19T05:00:17;11.50;99.90
3816;DHT22;1923;48.154;11.536;2023-10-19T05:02:48;11.60;99.90
3816;DHT22;1923;48.154;11.536;2023-10-19T05:05:18;11.70;99.90
3816;DHT22;1923;48.154;11.536;2023-10-19T05:07:50;11.70;99.90
3816;DHT22;1923;48.154;11.536;2023-10-19T05:10:18;11.70;99.90
3816;DHT22;1923;48.154;11.536;2023-10-19T05:12:47;11.80;99.90
3816;DHT22;1923;48.154;11.536;2023-10-19T05:15:15;11.80;99.90
3816;DHT22;1923;48.154;11.536;2023-10-19T05:17:45;11.80;99.90
3816;DHT22;1923;48.154;11.536;2023-10-19T05:20:13;11.70;99.90
3816;DHT22;1923;48.154;11.536;2023-10-19T05:22:44;11.80;99.90
3816;DHT22;1923;48.154;11.536;2023-10-19T05:25:14;11.80;99.90
3816;DHT22;1923;48.154;11.536;2023-10-19T05:27:42;11.80;99.90
3816;DHT22;1923;48.154;11.536;2023-10-19T05:30:13;11.80;99.90
3816;DHT22;1923;48.154;11.536;2023-10-19T05:32:41;11.80;99.90
3816;DHT22;1923;48.154;11.536;2023-10-19T05:35:09;11.80;99.90
3816;DHT22;1923;48.154;11.536;2023-10-19T05:37:40;11.80;99.90
3816;DHT22;1923;48.154;11.536;2023-10-19T05:40:09;11.80;99.90
3816;DHT22;1923;48.154;11.536;2023-10-19T05:42:43;11.80;99.90
3816;DHT22;1923;48.154;11.536;2023-10-19T05:45:11;11.90;99.90
3816;DHT22;1923;48.154;11.536;2023-10-19T05:47:42;11.80;99.90
3816;DHT22;1923;48.154;11.536;2023-10-19T05:50:11;11.90;99.90
3816;DHT22;1923;48.154;11.536;2023-10-19T05:52:41;11.80;99.90
3816;DHT22;1923;48.154;11.536;2023-10-19T05:55:10;11.90;99.90
3816;DHT22;1923;48.154;11.536;2023-10-19T05:57:39;11.90;99.90
3816;DHT22;1923;48.154;11.536;2023-10-19T06:00:11;11.90;99.90
3816;DHT22;1923;48.154;11.536;2023-10-19T06:02:44;11.90;99.90
3816;DHT22;1923;48.154;11.536;2023-10-19T06:05:13;12.00;99.90
3816;DHT22;1923;48.154;11.536;2023-10-19T06:07:43;11.90;99.90
3816;DHT22;1923;48.154;11.536;2023-10-19T06:10:12;12.00;99.90
3816;DHT22;1923;48.154;11.536;2023-10-19T06:12:44;12.00;99.90
3816;DHT22;1923;48.154;11.536;2023-10-19T06:15:16;12.00;99.90
3816;DHT22;1923;48.154;11.536;2023-10-19T06:17:44;12.00;99.90
3816;DHT22;1923;48.154;11.536;2023-10-19T06:20:13;12.10;99.90
3816;DHT22;1923;48.154;11.536;2023-10-19T06:22:52;12.00;99.90
3816;DHT22;1923;48.154;11.536;2023-10-19T06:25:21;12.10;99.90
3816;DHT22;1923;48.154;11.536;2023-10-19T06:27:51;12.10;99.90
3816;DHT22;1923;48.154;11.536;2023-10-19T06:30:20;12.20;99.90
3816;DHT22;1923;48.154;11.536;2023-10-19T06:32:52;12.20;99.90
3816;DHT22;1923;48.154;11.536;2023-10-19T06:35:21;12.30;99.90
3816;DHT22;1923;48.154;11.536;2023-10-19T06:37:49;12.30;99.90
3816;DHT22;1923;48.154;11.536;2023-10-19T06:40:18;12.40;99.90
3816;DHT22;1923;48.154;11.536;2023-10-19T06:42:46;12.40;99.90
3816;DHT22;1923;48.154;11.536;2023-10-19T06:45:16;12.50;99.90
3816;DHT22;1923;48.154;11.536;2023-10-19T06:47:49;12.60;99.90
3816;DHT22;1923;48.154;11.536;2023-10-19T06:50:19;12.60;99.90
3816;DHT22;1923;48.154;11.536;2023-10-19T06:52:48;12.70;99.90
3816;DHT22;1923;48.154;11.536;2023-10-19T06:55:17;12.80;99.90
3816;DHT22;1923;48.154;11.536;2023-10-19T06:57:48;12.90;99.90
3816;DHT22;1923;48.154;11.536;2023-10-19T07:00:18;12.90;99.90
3816;DHT22;1923;48.154;11.536;2023-10-19T07:02:49;13.00;99.90
3816;DHT22;1923;48.154;11.536;2023-10-19T07:05:20;13.10;99.90
3816;DHT22;1923;48.154;11.536;2023-10-19T07:07:49;13.20;99.90
3816;DHT22;1923;48.154;11.536;2023-10-19T07:10:19;13.20;99.90
3816;DHT22;1923;48.154;11.536;2023-10-19T07:12:54;13.30;99.90
3816;DHT22;1923;48.154;11.536;2023-10-19T07:15:23;13.40;99.90
3816;DHT22;1923;48.154;11.536;2023-10-19T07:17:53;13.50;99.90
3816;DHT22;1923;48.154;11.536;2023-10-19T07:20:22;13.60;99.90
3816;DHT22;1923;48.154;11.536;2023-10-19T07:22:54;13.70;99.90
3816;DHT22;1923;48.154;11.536;2023-10-19T07:25:23;13.80;99.90
3816;DHT22;1923;48.154;11.536;2023-10-19T07:27:53;14.00;99.90
3816;DHT22;1923;48.154;11.536;2023-10-19T07:30:21;14.10;99.90
3816;DHT22;1923;48.154;11.536;2023-10-19T07:32:54;14.20;99.90
3816;DHT22;1923;48.154;11.536;2023-10-19T07:35:25;14.30;99.90
3816;DHT22;1923;48.154;11.536;2023-10-19T07:37:55;14.40;99.90
3816;DHT22;1923;48.154;11.536;2023-10-19T07:40:24;14.60;99.90
3816;DHT22;1923;48.154;11.536;2023-10-19T07:42:52;14.70;99.90
3816;DHT22;1923;48.154;11.536;2023-10-19T07:45:21;14.90;99.90
3816;DHT22;1923;48.154;11.536;2023-10-19T07:47:50;15.00;99.90
3816;DHT22;1923;48.154;11.536;2023-10-19T07:50:19;15.20;99.90
3816;DHT22;1923;48.154;11.536;2023-10-19T07:52:50;15.30;99.90
3816;DHT22;1923;48.154;11.536;2023-10-19T07:55:21;15.40;99.90
3816;DHT22;1923;48.154;11.536;2023-10-19T07:57:51;15.50;99.90
3816;DHT22;1923;48.154;11.536;2023-10-19T08:00:20;15.50;99.90
3816;DHT22;1923;48.154;11.536;2023-10-19T08:02:50;15.50;99.90
3816;DHT22;1923;48.154;11.536;2023-10-19T08:05:20;15.60;99.90
3816;DHT22;1923;48.154;11.536;2023-10-19T08:07:48;15.50;99.90
3816;DHT22;1923;48.154;11.536;2023-10-19T08:10:18;15.50;99.90
3816;DHT22;1923;48.154;11.536;2023-10-19T08:12:47;15.60;99.90
3816;DHT22;1923;48.154;11.536;2023-10-19T08:15:16;15.70;99.90
3816;DHT22;1923;48.154;11.536;2023-10-19T08:17:46;15.80;99.90
3816;DHT22;1923;48.154;11.536;2023-10-19T08:20:16;15.90;99.90
3816;DHT22;1923;48.154;11.536;2023-10-19T08:22:52;16.00;99.90
3816;DHT22;1923;48.154;11.536;2023-10-19T08:25:20;16.10;99.90
3816;DHT22;1923;48.154;11.536;2023-10-19T08:27:49;16.20;99.90
3816;DHT22;1923;48.154;11.536;2023-10-19T08:30:20;16.30;99.90
3816;DHT22;1923;48.154;11.536;2023-10-19T08:32:53;16.40;99.90
3816;DHT22;1923;48.154;11.536;2023-10-19T08:35:23;16.50;99.90
3816;DHT22;1923;48.154;11.536;2023-10-19T08:37:55;16.70;99.90
3816;DHT22;1923;48.154;11.536;2023-10-19T08:40:25;16.70;99.90
3816;DHT22;1923;48.154;11.536;2023-10-19T08:42:54;16.90;99.90
3816;DHT22;1923;48.154;11.536;2023-10-19T08:45:23;17.00;99.90
3816;DHT22;1923;48.154;11.536;2023-10-19T08:47:54;17.10;99.90
3816;DHT22;1923;48.154;11.536;2023-10-19T08:50:25;17.20;99.90
3816;DHT22;1923;48.154;11.536;2023-10-19T08:52:56;17.20;99.90
3816;DHT22;1923;48.154;11.536;2023-10-19T08:55:25;17.30;99.90
3816;DHT22;1923;48.154;11.536;2023-10-19T08:58:15;17.30;99.90
3816;DHT22;1923;48.154;11.536;2023-10-19T09:00:47;17.30;99.90
3816;DHT22;1923;48.154;11.536;2023-10-19T09:03:16;17.40;99.90
3816;DHT22;1923;48.154;11.536;2023-10-19T09:05:45;17.40;99.90
3816;DHT22;1923;48.154;11.536;2023-10-19T09:08:16;17.50;99.90
3816;DHT22;1923;48.154;11.536;2023-10-19T09:10:46;17.60;99.90
3816;DHT22;1923;48.154;11.536;2023-10-19T09:13:14;17.60;99.90
3816;DHT22;1923;48.154;11.536;2023-10-19T09:15:46;17.60;99.90
3816;DHT22;1923;48.154;11.536;2023-10-19T09:18:17;17.80;99.90
3816;DHT22;1923;48.154;11.536;2023-10-19T09:20:46;17.80;99.90
3816;DHT22;1923;48.154;11.536;2023-10-19T09:23:23;17.90;99.90
3816;DHT22;1923;48.154;11.536;2023-10-19T09:25:53;17.90;99.90
3816;DHT22;1923;48.154;11.536;2023-10-19T09:28:21;18.00;99.90
3816;DHT22;1923;48.154;11.536;2023-10-19T09:30:51;18.00;99.90
3816;DHT22;1923;48.154;11.536;2023-10-19T09:33:21;18.00;99.90
3816;DHT22;1923;48.154;11.536;2023-10-19T09:35:51;18.00;99.90
3816;DHT22;1923;48.154;11.536;2023-10-19T09:38:24;18.00;99.90
3816;DHT22;1923;48.154;11.536;2023-10-19T09:40:54;17.90;99.90
3816;DHT22;1923;48.154;11.536;2023-10-19T09:43:31;17.90;99.90
3816;DHT22;1923;48.154;11.536;2023-10-19T09:46:05;17.90;99.90
3816;DHT22;1923;48.154;11.536;2023-10-19T09:48:39;17.90;99.90
3816;DHT22;1923;48.154;11.536;2023-10-19T09:51:09;17.90;99.90
3816;DHT22;1923;48.154;11.536;2023-10-19T09:53:44;18.00;99.90
3816;DHT22;1923;48.154;11.536;2023-10-19T09:56:19;18.20;99.90
3816;DHT22;1923;48.154;11.536;2023-10-19T09:58:51;18.30;99.90
3816;DHT22;1923;48.154;11.536;2023-10-19T10:01:21;18.60;99.90
3816;DHT22;1923;48.154;11.536;2023-10-19T10:03:51;18.80;99.90
3816;DHT22;1923;48.154;11.536;2023-10-19T10:06:28;19.00;99.90
3816;DHT22;1923;48.154;11.536;2023-10-19T10:09:00;19.30;99.90
3816;DHT22;1923;48.154;11.536;2023-10-19T10:11:30;19.20;99.90
3816;DHT22;1923;48.154;11.536;2023-10-19T10:14:20;19.30;99.90
3816;DHT22;1923;48.154;11.536;2023-10-19T10:16:59;19.40;99.90
3816;DHT22;1923;48.154;11.536;2023-10-19T10:19:28;19.40;99.90
3816;DHT22;1923;48.154;11.536;2023-10-19T10:22:08;19.30;99.90
3816;DHT22;1923;48.154;11.536;2023-10-19T10:24:41;19.30;99.90
3816;DHT22;1923;48.154;11.536;2023-10-19T10:27:10;19.30;99.90
3816;DHT22;1923;48.154;11.536;2023-10-19T10:29:54;19.30;99.90
3816;DHT22;1923;48.154;11.536;2023-10-19T10:32:44;19.40;99.90
3816;DHT22;1923;48.154;11.536;2023-10-19T10:35:53;19.50;99.90
3816;DHT22;1923;48.154;11.536;2023-10-19T10:38:21;19.50;99.90
3816;DHT22;1923;48.154;11.536;2023-10-19T10:40:51;19.50;99.90
3816;DHT22;1923;48.154;11.536;2023-10-19T10:43:21;19.50;99.90
3816;DHT22;1923;48.154;11.536;2023-10-19T10:45:52;19.50;99.90
3816;DHT22;1923;48.154;11.536;2023-10-19T10:48:20;19.50;99.90
3816;DHT22;1923;48.154;11.536;2023-10-19T10:50:49;19.50;99.90
3816;DHT22;1923;48.154;11.536;2023-10-19T10:53:17;19.60;99.90
3816;DHT22;1923;48.154;11.536;2023-10-19T10:55:45;19.70;99.90
3816;DHT22;1923;48.154;11.536;2023-10-19T10:58:16;19.70;99.90
3816;DHT22;1923;48.154;11.536;2023-10-19T11:00:45;19.80;99.90
3816;DHT22;1923;48.154;11.536;2023-10-19T11:03:14;19.80;99.90
3816;DHT22;1923;48.154;11.536;2023-10-19T11:05:43;19.90;99.90
3816;DHT22;1923;48.154;11.536;2023-10-19T11:08:14;19.90;99.90
3816;DHT22;1923;48.154;11.536;2023-10-19T11:10:44;19.90;99.90
3816;DHT22;1923;48.154;11.536;2023-10-19T11:13:15;20.00;99.90
3816;DHT22;1923;48.154;11.536;2023-10-19T11:15:49;19.90;99.90
3816;DHT22;1923;48.154;11.536;2023-10-19T11:18:30;20.00;99.90
3816;DHT22;1923;48.154;11.536;2023-10-19T11:21:02;20.10;99.90
3816;DHT22;1923;48.154;11.536;2023-10-19T11:23:38;20.20;99.90
3816;DHT22;1923;48.154;11.536;2023-10-19T11:26:07;20.30;99.90
3816;DHT22;1923;48.154;11.536;2023-10-19T11:28:38;20.40;99.90
3816;DHT22;1923;48.154;11.536;2023-10-19T11:31:14;20.50;99.90
3816;DHT22;1923;48.154;11.536;2023-10-19T11:33:44;20.50;99.90
3816;DHT22;1923;48.154;11.536;2023-10-19T11:36:12;20.40;99.90
3816;DHT22;1923;48.154;11.536;2023-10-19T11:38:41;20.30;99.90
3816;DHT22;1923;48.154;11.536;2023-10-19T11:41:10;20.30;99.90
3816;DHT22;1923;48.154;11.536;2023-10-19T11:43:41;20.20;99.90
3816;DHT22;1923;48.154;11.536;2023-10-19T11:46:16;20.10;99.90
3816;DHT22;1923;48.154;11.536;2023-10-19T11:48:45;19.90;99.90
3816;DHT22;1923;48.154;11.536;2023-10-19T11:51:13;19.90;99.90
3816;DHT22;1923;48.154;11.536;2023-10-19T11:53:42;19.90;99.90
3816;DHT22;1923;48.154;11.536;2023-10-19T11:56:12;19.80;99.90
3816;DHT22;1923;48.154;11.536;2023-10-19T11:58:44;19.80;99.90
3816;DHT22;1923;48.154;11.536;2023-10-19T12:01:14;19.40;99.90
3816;DHT22;1923;48.154;11.536;2023-10-19T12:03:44;19.40;99.90
3816;DHT22;1923;48.154;11.536;2023-10-19T12:06:13;19.50;99.90
3816;DHT22;1923;48.154;11.536;2023-10-19T12:08:46;19.40;99.90
3816;DHT22;1923;48.154;11.536;2023-10-19T12:11:15;19.60;99.90
3816;DHT22;1923;48.154;11.536;2023-10-19T12:13:45;19.70;99.90
3816;DHT22;1923;48.154;11.536;2023-10-19T12:16:15;19.50;99.90
3816;DHT22;1923;48.154;11.536;2023-10-19T12:18:44;19.50;99.90
3816;DHT22;1923;48.154;11.536;2023-10-19T12:21:13;19.60;99.90
3816;DHT22;1923;48.154;11.536;2023-10-19T12:23:42;19.50;99.90
3816;DHT22;1923;48.154;11.536;2023-10-19T12:26:11;19.60;99.90
3816;DHT22;1923;48.154;11.536;2023-10-19T12:28:39;19.70;99.90
3816;DHT22;1923;48.154;11.536;2023-10-19T12:31:09;19.60;99.90
3816;DHT22;1923;48.154;11.536;2023-10-19T12:33:37;19.60;99.90
3816;DHT22;1923;48.154;11.536;2023-10-19T12:36:06;19.80;99.90
3816;DHT22;1923;48.154;11.536;2023-10-19T12:38:52;19.70;99.90
3816;DHT22;1923;48.154;11.536;2023-10-19T12:41:21;19.80;99.90
3816;DHT22;1923;48.154;11.536;2023-10-19T12:43:50;19.90;99.90
3816;DHT22;1923;48.154;11.536;2023-10-19T12:46:21;19.90;99.90
3816;DHT22;1923;48.154;11.536;2023-10-19T12:48:52;19.80;99.90
3816;DHT22;1923;48.154;11.536;2023-10-19T12:51:21;19.70;99.90
3816;DHT22;1923;48.154;11.536;2023-10-19T12:53:51;19.70;99.90
3816;DHT22;1923;48.154;11.536;2023-10-19T12:56:19;19.60;99.90
3816;DHT22;1923;48.154;11.536;2023-10-19T12:58:47;19.70;99.90
3816;DHT22;1923;48.154;11.536;2023-10-19T13:01:16;19.70;99.90
3816;DHT22;1923;48.154;11.536;2023-10-19T13:03:47;19.40;99.90
3816;DHT22;1923;48.154;11.536;2023-10-19T13:06:17;19.40;99.90
3816;DHT22;1923;48.154;11.536;2023-10-19T13:08:46;19.50;99.90
3816;DHT22;1923;48.154;11.536;2023-10-19T13:11:14;19.40;99.90
3816;DHT22;1923;48.154;11.536;2023-10-19T13:13:45;19.50;99.90
3816;DHT22;1923;48.154;11.536;2023-10-19T13:16:14;19.40;99.90
3816;DHT22;1923;48.154;11.536;2023-10-19T13:18:43;19.40;99.90
3816;DHT22;1923;48.154;11.536;2023-10-19T13:21:13;19.50;99.90
3816;DHT22;1923;48.154;11.536;2023-10-19T13:23:48;19.60;99.90
3816;DHT22;1923;48.154;11.536;2023-10-19T13:26:17;19.50;99.90
3816;DHT22;1923;48.154;11.536;2023-10-19T13:28:46;19.70;99.90
3816;DHT22;1923;48.154;11.536;2023-10-19T13:31:15;19.70;99.90
3816;DHT22;1923;48.154;11.536;2023-10-19T13:33:46;19.70;99.90
3816;DHT22;1923;48.154;11.536;2023-10-19T13:36:15;19.70;99.90
3816;DHT22;1923;48.154;11.536;2023-10-19T13:38:44;19.70;99.90
3816;DHT22;1923;48.154;11.536;2023-10-19T13:41:12;19.70;99.90
3816;DHT22;1923;48.154;11.536;2023-10-19T13:43:43;19.70;99.90
3816;DHT22;1923;48.154;11.536;2023-10-19T13:46:12;19.80;99.90
3816;DHT22;1923;48.154;11.536;2023-10-19T13:48:42;19.90;99.90
3816;DHT22;1923;48.154;11.536;2023-10-19T13:51:10;19.70;99.90
3816;DHT22;1923;48.154;11.536;2023-10-19T13:53:42;19.60;99.90
3816;DHT22;1923;48.154;11.536;2023-10-19T13:56:12;19.60;99.90
3816;DHT22;1923;48.154;11.536;2023-10-19T13:58:41;19.60;99.90
3816;DHT22;1923;48.154;11.536;2023-10-19T14:01:11;19.50;99.90
3816;DHT22;1923;48.154;11.536;2023-10-19T14:03:43;19.50;99.90
3816;DHT22;1923;48.154;11.536;2023-10-19T14:06:12;19.40;99.90
3816;DHT22;1923;48.154;11.536;2023-10-19T14:08:42;19.50;99.90
3816;DHT22;1923;48.154;11.536;2023-10-19T14:11:11;19.30;99.90
3816;DHT22;1923;48.154;11.536;2023-10-19T14:13:39;19.20;99.90
3816;DHT22;1923;48.154;11.536;2023-10-19T14:16:09;19.20;99.90
3816;DHT22;1923;48.154;11.536;2023-10-19T14:18:38;19.30;99.90
3816;DHT22;1923;48.154;11.536;2023-10-19T14:21:14;19.20;99.90
3816;DHT22;1923;48.154;11.536;2023-10-19T14:23:44;19.10;99.90
3816;DHT22;1923;48.154;11.536;2023-10-19T14:26:13;18.80;99.90
3816;DHT22;1923;48.154;11.536;2023-10-19T14:28:41;18.70;99.90
3816;DHT22;1923;48.154;11.536;2023-10-19T14:31:10;18.70;99.90
3816;DHT22;1923;48.154;11.536;2023-10-19T14:33:39;18.50;99.90
3816;DHT22;1923;48.154;11.536;2023-10-19T14:36:08;18.50;99.90
3816;DHT22;1923;48.154;11.536;2023-10-19T14:38:37;18.50;99.90
3816;DHT22;1923;48.154;11.536;2023-10-19T14:41:07;18.40;99.90
3816;DHT22;1923;48.154;11.536;2023-10-19T14:43:37;18.30;99.90
3816;DHT22;1923;48.154;11.536;2023-10-19T14:46:05;18.30;99.90
3816;DHT22;1923;48.154;11.536;2023-10-19T14:48:34;18.50;99.90
3816;DHT22;1923;48.154;11.536;2023-10-19T14:51:03;18.40;99.90
3816;DHT22;1923;48.154;11.536;2023-10-19T14:53:32;18.40;99.90
3816;DHT22;1923;48.154;11.536;2023-10-19T14:56:01;18.40;99.90
3816;DHT22;1923;48.154;11.536;2023-10-19T14:58:30;18.40;99.90
3816;DHT22;1923;48.154;11.536;2023-10-19T15:00:59;18.30;99.90
3816;DHT22;1923;48.154;11.536;2023-10-19T15:03:27;18.40;99.90
3816;DHT22;1923;48.154;11.536;2023-10-19T15:05:56;18.50;99.90
3816;DHT22;1923;48.154;11.536;2023-10-19T15:08:26;18.40;99.90
3816;DHT22;1923;48.154;11.536;2023-10-19T15:10:58;18.30;99.90
3816;DHT22;1923;48.154;11.536;2023-10-19T15:13:26;18.20;99.90
3816;DHT22;1923;48.154;11.536;2023-10-19T15:15:56;18.00;99.90
3816;DHT22;1923;48.154;11.536;2023-10-19T15:18:24;18.00;99.90
3816;DHT22;1923;48.154;11.536;2023-10-19T15:20:52;17.90;99.90
3816;DHT22;1923;48.154;11.536;2023-10-19T15:23:20;17.80;99.90
3816;DHT22;1923;48.154;11.536;2023-10-19T15:25:49;17.80;99.90
3816;DHT22;1923;48.154;11.536;2023-10-19T15:28:18;17.70;99.90
3816;DHT22;1923;48.154;11.536;2023-10-19T15:30:46;17.70;99.90
3816;DHT22;1923;48.154;11.536;2023-10-19T15:33:17;17.70;99.90
3816;DHT22;1923;48.154;11.536;2023-10-19T15:35:47;17.70;99.90
3816;DHT22;1923;48.154;11.536;2023-10-19T15:38:15;17.60;99.90
3816;DHT22;1923;48.154;11.536;2023-10-19T15:40:43;17.50;99.90
3816;DHT22;1923;48.154;11.536;2023-10-19T15:43:11;17.70;99.90
3816;DHT22;1923;48.154;11.536;2023-10-19T15:45:40;17.50;99.90
3816;DHT22;1923;48.154;11.536;2023-10-19T15:48:11;17.50;99.90
3816;DHT22;1923;48.154;11.536;2023-10-19T15:50:40;17.30;99.90
3816;DHT22;1923;48.154;11.536;2023-10-19T15:53:09;17.00;99.90
3816;DHT22;1923;48.154;11.536;2023-10-19T15:55:37;17.00;99.90
3816;DHT22;1923;48.154;11.536;2023-10-19T15:58:05;16.90;99.90
3816;DHT22;1923;48.154;11.536;2023-10-19T16:00:35;16.80;99.90
3816;DHT22;1923;48.154;11.536;2023-10-19T16:03:05;16.80;99.90
3816;DHT22;1923;48.154;11.536;2023-10-19T16:05:34;16.90;99.90
3816;DHT22;1923;48.154;11.536;2023-10-19T16:08:05;16.90;99.90
3816;DHT22;1923;48.154;11.536;2023-10-19T16:10:33;16.90;99.90